Time;durP1;ratioP1;P1;durP2;ratioP2;P2;SDS_P1;SDS_P2;PMS_P1;PMS_P2;Temp;Humidity;BMP_temperature;BMP_pressure;BME280_temperature;BME280_humidity;BME280_pressure;Samples;Min_cycle;Max_cycle;Signal;HPM_P1;HPM_P2
2022/11/29 00:01:16;;;;;;;7.05;4.30;;;;;;;5.87;100.00;101366.44;4977351;28;20053;-87
2022/11/29 00:03:42;;;;;;;7.15;4.25;;;;;;;5.85;100.00;101362.97;4977665;28;20027;-87
2022/11/29 00:06:14;;;;;;;8.45;4.30;;;;;;;5.80;100.00;101367.19;4976708;28;20365;-88
2022/11/29 00:08:42;;;;;;;7.75;4.47;;;;;;;5.76;100.00;101364.56;4977440;28;20023;-87
2022/11/29 00:14:16;;;;;;;7.07;4.07;;;;;;;5.72;100.00;101369.69;4977120;28;20057;-87
2022/11/29 00:16:42;;;;;;;6.88;3.92;;;;;;;5.74;100.00;101374.00;4977100;28;20534;-87
2022/11/29 00:19:09;;;;;;;7.32;4.20;;;;;;;5.73;100.00;101370.53;4976969;28;20035;-87
2022/11/29 00:21:34;;;;;;;;;;;;;;;5.75;100.00;101367.97;4977222;28;20050;-87
2022/11/29 00:24:00;;;;;;;7.43;4.27;;;;;;;5.75;100.00;101365.41;4977017;28;19957;-87
2022/11/29 00:26:25;;;;;;;7.35;4.13;;;;;;;5.75;100.00;101370.56;4976670;28;20435;-86
2022/11/29 00:28:51;;;;;;;7.33;4.17;;;;;;;5.75;100.00;101375.72;4976813;28;20523;-87
2022/11/29 00:31:26;;;;;;;8.00;4.32;;;;;;;5.71;100.00;101375.69;4976909;28;20081;-87
2022/11/29 00:33:51;;;;;;;8.18;4.43;;;;;;;5.71;100.00;101374.81;4976410;28;20483;-87
2022/11/29 00:36:17;;;;;;;6.05;3.88;;;;;;;5.70;100.00;101379.09;4976169;28;20039;-87
2022/11/29 00:38:43;;;;;;;7.85;4.28;;;;;;;5.69;100.00;101379.06;4976853;28;20027;-87
2022/11/29 00:41:09;;;;;;;8.02;4.28;;;;;;;5.68;100.00;101383.38;4976241;28;20019;-87
2022/11/29 00:43:34;;;;;;;6.43;3.85;;;;;;;5.68;100.00;101379.94;4976658;28;20097;-87
2022/11/29 00:46:00;;;;;;;7.68;4.05;;;;;;;5.66;100.00;101379.91;4976603;28;20026;-87
2022/11/29 00:48:26;;;;;;;7.60;4.35;;;;;;;5.66;100.00;101382.47;4975683;28;20030;-87
2022/11/29 00:50:51;;;;;;;7.35;4.15;;;;;;;5.67;100.00;101371.34;4976525;28;20060;-87
2022/11/29 00:53:17;;;;;;;7.10;3.93;;;;;;;5.67;100.00;101373.91;4976240;28;20038;-87
2022/11/29 00:55:50;;;;;;;7.30;3.95;;;;;;;5.66;100.00;101377.31;4974846;28;20126;-87
2022/11/29 00:58:15;;;;;;;6.13;3.53;;;;;;;5.65;100.00;101377.31;4976063;28;20034;-87
2022/11/29 01:00:41;;;;;;;5.47;3.45;;;;;;;5.66;100.00;101381.63;4976611;28;20022;-87
2022/11/29 01:03:06;;;;;;;5.43;3.50;;;;;;;5.65;100.00;101378.16;4975506;28;20027;-87
2022/11/29 01:05:31;;;;;;;6.35;3.70;;;;;;;5.67;100.00;101379.06;4976341;28;20018;-87
2022/11/29 01:07:57;;;;;;;5.65;3.55;;;;;;;5.68;100.00;101372.22;4976301;28;20023;-87
2022/11/29 01:10:22;;;;;;;6.50;3.70;;;;;;;5.71;100.00;101379.97;4975876;28;20174;-87
2022/11/29 01:12:47;;;;;;;6.47;3.72;;;;;;;5.71;100.00;101380.84;4976405;28;20114;-87
2022/11/29 01:15:13;;;;;;;7.00;4.00;;;;;;;5.70;100.00;101384.25;4975589;28;20053;-87
2022/11/29 01:17:38;;;;;;;7.97;3.88;;;;;;;5.71;100.00;101380.84;4975606;28;20061;-87
2022/11/29 01:20:07;;;;;;;6.50;3.90;;;;;;;5.71;100.00;101388.56;4975759;28;20070;-87
2022/11/29 01:22:33;;;;;;;7.18;4.05;;;;;;;5.72;100.00;101387.72;4975758;28;20033;-87
2022/11/29 01:24:59;;;;;;;7.00;4.07;;;;;;;5.72;100.00;101384.28;4975398;28;20102;-87
2022/11/29 01:27:24;;;;;;;6.32;3.85;;;;;;;5.71;100.00;101386.00;4975803;28;20698;-87
2022/11/29 01:29:49;;;;;;;7.28;3.97;;;;;;;5.69;100.00;101387.69;4975430;28;20515;-87
2022/11/29 01:32:14;;;;;;;5.88;3.78;;;;;;;5.67;100.00;101383.34;4975718;28;20035;-88
2022/11/29 01:34:40;;;;;;;6.57;3.80;;;;;;;5.66;100.00;101382.47;4975798;28;20030;-87
2022/11/29 01:37:05;;;;;;;6.15;3.83;;;;;;;5.65;100.00;101382.47;4975026;28;20031;-87
2022/11/29 01:39:31;;;;;;;6.97;4.20;;;;;;;5.65;100.00;101385.03;4975883;28;20431;-87
2022/11/29 01:41:56;;;;;;;6.60;3.83;;;;;;;5.64;100.00;101389.31;4975885;28;20031;-88
2022/11/29 01:44:21;;;;;;;6.47;4.05;;;;;;;5.65;100.00;101391.03;4974665;28;20096;-87
2022/11/29 01:46:48;;;;;;;9.10;4.20;;;;;;;5.66;100.00;101385.06;4975584;28;20066;-87
2022/11/29 01:49:18;;;;;;;7.85;4.25;;;;;;;5.65;100.00;101388.47;4975160;28;20158;-87
2022/11/29 01:51:54;;;;;;;8.68;4.55;;;;;;;5.65;100.00;101392.75;4974993;28;20027;-87
2022/11/29 01:54:20;;;;;;;8.90;4.68;;;;;;;5.65;100.00;101400.50;4975699;28;20030;-87
2022/11/29 01:56:49;;;;;;;8.25;4.63;;;;;;;5.63;100.00;101413.31;4976769;28;20418;-88
2022/11/29 01:59:17;;;;;;;9.63;4.80;;;;;;;5.62;100.00;101416.78;4975178;28;20089;-87
2022/11/29 02:01:42;;;;;;;8.38;4.53;;;;;;;5.60;100.00;101418.47;4975273;28;20029;-87
2022/11/29 02:04:08;;;;;;;7.78;4.43;;;;;;;5.59;100.00;101427.03;4974797;28;20396;-87
2022/11/29 02:06:37;;;;;;;7.88;4.38;;;;;;;5.59;100.00;101432.16;4974636;28;20412;-87
2022/11/29 02:09:03;;;;;;;8.55;4.40;;;;;;;5.57;100.00;101429.56;4974269;28;20019;-87
2022/11/29 02:12:00;;;;;;;6.22;4.00;;;;;;;5.57;100.00;101429.56;4975289;28;20034;-87
2022/11/29 02:14:39;;;;;;;7.25;4.15;;;;;;;5.60;100.00;101433.91;4974439;28;20105;-87
2022/11/29 02:17:29;;;;;;;7.07;4.05;;;;;;;5.60;100.00;101431.31;4975065;28;20066;-87
2022/11/29 02:20:28;;;;;;;6.82;4.00;;;;;;;5.60;100.00;101433.03;4974517;28;20077;-87
2022/11/29 02:23:14;;;;;;;7.22;4.20;;;;;;;5.57;100.00;101432.13;4974735;28;20068;-87
2022/11/29 02:25:54;;;;;;;6.18;3.75;;;;;;;5.56;100.00;101434.69;4974885;28;20118;-87
2022/11/29 02:28:54;;;;;;;6.40;3.92;;;;;;;5.55;100.00;101438.09;4974186;28;20035;-87
2022/11/29 02:31:34;;;;;;;6.30;3.85;;;;;;;5.54;100.00;101434.69;4974530;28;20026;-87
2022/11/29 02:34:05;;;;;;;6.45;3.90;;;;;;;5.53;100.00;101432.94;4972193;28;20165;-87
2022/11/29 02:36:48;;;;;;;6.80;4.15;;;;;;;5.52;100.00;101435.47;4974910;28;20026;-86
2022/11/29 02:39:23;;;;;;;5.82;3.65;;;;;;;5.51;100.00;101444.94;4974463;28;20511;-87
2022/11/29 02:42:04;;;;;;;5.53;3.42;;;;;;;5.49;100.00;101441.44;4973971;28;20034;-87
2022/11/29 02:44:50;;;;;;;6.50;3.67;;;;;;;5.48;100.00;101438.88;4974640;28;20031;-87
2022/11/29 02:47:36;;;;;;;7.97;3.90;;;;;;;5.47;100.00;101437.13;4973761;28;20439;-87
2022/11/29 02:50:31;;;;;;;5.90;3.58;;;;;;;5.47;100.00;101435.41;4974725;28;20155;-87
2022/11/29 02:53:10;;;;;;;4.63;3.30;;;;;;;5.44;100.00;101444.81;4974571;28;20035;-87
2022/11/29 02:55:51;;;;;;;4.97;3.30;;;;;;;5.43;100.00;101443.06;4973736;28;20047;-87
2022/11/29 02:58:47;;;;;;;4.80;3.10;;;;;;;5.43;100.00;101450.78;4954789;29;20046;-87
2022/11/29 03:01:32;;;;;;;6.25;3.83;;;;;;;5.42;100.00;101455.09;4954188;29;20035;-87
2022/11/29 03:04:32;;;;;;;6.65;3.90;;;;;;;5.43;100.00;101451.66;4954799;29;20031;-87
2022/11/29 03:07:09;;;;;;;6.53;3.97;;;;;;;5.43;100.00;101445.63;4959471;28;20031;-87
2022/11/29 03:09:47;;;;;;;7.10;4.10;;;;;;;5.43;100.00;101450.78;4974061;28;20019;-87
2022/11/29 03:12:32;;;;;;;5.78;3.85;;;;;;;5.41;100.00;101449.06;4974038;28;20138;-88
2022/11/29 03:15:08;;;;;;;6.10;3.83;;;;;;;5.41;100.00;101461.06;4974315;28;20082;-87
2022/11/29 03:18:04;;;;;;;7.30;4.33;;;;;;;5.40;100.00;101465.34;4973844;28;20031;-87
2022/11/29 03:20:38;;;;;;;6.05;3.85;;;;;;;5.39;100.00;101466.22;4977804;28;20058;-87
2022/11/29 03:23:18;;;;;;;7.40;4.18;;;;;;;5.37;100.00;101473.03;4977236;28;20435;-87
2022/11/29 03:26:03;;;;;;;5.75;3.92;;;;;;;5.36;100.00;101468.72;4978400;28;20066;-87
2022/11/29 03:28:37;;;;;;;6.90;4.18;;;;;;;5.35;100.00;101474.72;4978249;28;20023;-87
2022/11/29 03:31:14;;;;;;;6.22;3.90;;;;;;;5.35;100.00;101477.28;4977155;28;20041;-87
2022/11/29 03:34:10;;;;;;;6.88;4.20;;;;;;;5.34;100.00;101472.97;4977863;28;20534;-88
2022/11/29 03:36:52;;;;;;;7.22;4.03;;;;;;;5.34;100.00;101475.53;4977562;28;20047;-87
2022/11/29 03:39:23;;;;;;;5.22;3.58;;;;;;;5.34;100.00;101480.69;4977645;28;20045;-87
2022/11/29 03:41:58;;;;;;;7.28;4.00;;;;;;;5.33;100.00;101491.84;4978090;28;20031;-88
2022/11/29 03:44:27;;;;;;;7.13;4.05;;;;;;;5.33;100.00;101488.41;4977203;28;20041;-87
2022/11/29 03:47:08;;;;;;;6.18;4.10;;;;;;;5.33;100.00;101491.84;4977702;28;20464;-88
2022/11/29 03:49:41;;;;;;;6.63;4.15;;;;;;;5.33;100.00;101494.41;4977807;28;20387;-87
2022/11/29 03:52:18;;;;;;;6.15;3.88;;;;;;;5.31;100.00;101493.50;4976536;28;20031;-87
2022/11/29 03:55:00;;;;;;;5.53;3.58;;;;;;;5.26;100.00;101496.00;4977617;28;20060;-87
2022/11/29 03:57:37;;;;;;;5.80;3.67;;;;;;;5.27;100.00;101499.47;4975629;28;20039;-87
2022/11/29 04:00:12;;;;;;;6.40;3.90;;;;;;;5.26;100.00;101503.72;4958306;29;20023;-87
2022/11/29 04:02:56;;;;;;;5.15;3.53;;;;;;;5.27;100.00;101504.59;4958079;29;20027;-87
2022/11/29 04:05:34;;;;;;;6.18;4.03;;;;;;;5.29;100.00;101514.91;4957459;29;20038;-87
2022/11/29 04:08:12;;;;;;;5.65;3.80;;;;;;;5.29;100.00;101502.94;4958086;29;20464;-87
2022/11/29 04:11:02;;;;;;;6.20;3.90;;;;;;;5.31;100.00;101508.94;4958025;29;20034;-87
2022/11/29 04:14:04;;;;;;;6.57;4.18;;;;;;;5.32;100.00;101512.41;4957781;29;20134;-88
2022/11/29 04:16:57;;;;;;;5.50;3.80;;;;;;;5.31;100.00;101505.53;4958020;29;20031;-87
2022/11/29 04:19:43;;;;;;;6.32;3.90;;;;;;;5.30;100.00;101511.50;4963885;28;20110;-87
2022/11/29 04:22:27;;;;;;;4.97;3.70;;;;;;;5.26;100.00;101519.16;4977036;28;20042;-87
2022/11/29 04:24:58;;;;;;;6.00;3.90;;;;;;;5.23;100.00;101523.41;4977492;28;20043;-85
2022/11/29 04:27:49;;;;;;;6.03;4.00;;;;;;;5.22;100.00;101525.13;4976482;28;20027;-85
2022/11/29 04:30:20;;;;;;;5.72;4.00;;;;;;;5.18;100.00;101522.47;4976038;28;20054;-84
2022/11/29 04:32:48;;;;;;;5.88;4.05;;;;;;;5.18;100.00;101519.91;4976483;28;20027;-84
2022/11/29 04:35:31;;;;;;;6.40;4.15;;;;;;;5.18;100.00;101522.47;4976750;28;20030;-86
2022/11/29 04:38:12;;;;;;;5.57;3.95;;;;;;;5.18;100.00;101523.31;4976667;28;20035;-85
2022/11/29 04:41:26;;;;;;;5.90;3.92;;;;;;;5.17;100.00;101519.00;4976310;28;20030;-85
2022/11/29 04:44:03;;;;;;;5.40;3.78;;;;;;;5.18;100.00;101525.91;4958755;28;20431;-84
2022/11/29 04:46:58;;;;;;;4.43;3.30;;;;;;;5.14;100.00;101531.81;4976635;28;20026;-85
2022/11/29 04:49:32;;;;;;;6.10;4.07;;;;;;;5.14;100.00;101538.69;4976663;28;20031;-85
2022/11/29 04:52:20;;;;;;;5.45;3.75;;;;;;;5.14;100.00;101538.69;4976765;28;20034;-84
2022/11/29 04:55:10;;;;;;;5.70;3.72;;;;;;;5.13;100.00;101539.50;4975559;28;20539;-85
2022/11/29 04:58:10;;;;;;;4.50;3.42;;;;;;;5.10;100.00;101538.63;4976280;28;20443;-85
2022/11/29 05:00:48;;;;;;;5.32;3.53;;;;;;;5.07;100.00;101542.84;4976809;28;20034;-84
2022/11/29 05:03:30;;;;;;;5.72;3.72;;;;;;;5.08;100.00;101544.56;4975941;28;20038;-84
2022/11/29 05:06:12;;;;;;;5.65;3.83;;;;;;;5.07;100.00;101551.41;4976591;28;20027;-84
2022/11/29 05:08:47;;;;;;;4.53;3.25;;;;;;;5.08;100.00;101554.88;4975939;28;20031;-85
2022/11/29 05:11:17;;;;;;;4.45;3.35;;;;;;;5.08;100.00;101560.88;4976128;28;20057;-85
2022/11/29 05:14:03;;;;;;;3.88;3.10;;;;;;;5.08;100.00;101568.59;4965911;28;20038;-85
2022/11/29 05:16:45;;;;;;;5.20;3.60;;;;;;;5.05;100.00;101559.94;4975434;28;20472;-84
2022/11/29 05:19:15;;;;;;;4.97;3.58;;;;;;;5.01;100.00;101563.31;4975997;28;20461;-84
2022/11/29 05:22:15;;;;;;;4.85;3.40;;;;;;;5.01;100.00;101574.47;4976222;28;20146;-84
2022/11/29 05:25:04;;;;;;;4.50;3.40;;;;;;;5.02;100.00;101581.34;4975989;28;20183;-85
2022/11/29 05:27:55;;;;;;;4.50;3.10;;;;;;;5.04;100.00;101584.81;4976124;28;20026;-84
2022/11/29 05:30:23;;;;;;;4.97;3.50;;;;;;;5.04;100.00;101584.81;4975067;28;20043;-85
2022/11/29 05:32:51;;;;;;;4.53;3.35;;;;;;;5.05;100.00;101584.00;4976147;28;20154;-85
2022/11/29 05:35:51;;;;;;;5.32;3.75;;;;;;;5.05;100.00;101583.09;4975844;28;20125;-85
2022/11/29 05:38:26;;;;;;;4.95;3.55;;;;;;;5.05;100.00;101595.97;4974829;28;20047;-84
2022/11/29 05:41:29;;;;;;;5.05;3.60;;;;;;;5.04;100.00;101594.22;4975462;28;20027;-85
2022/11/29 05:44:27;;;;;;;5.28;3.65;;;;;;;5.01;100.00;101601.91;4974711;28;20041;-84
2022/11/29 05:46:59;;;;;;;5.15;3.60;;;;;;;5.02;100.00;101609.66;4966573;28;20047;-85
2022/11/29 05:49:56;;;;;;;4.15;3.30;;;;;;;5.03;100.00;101606.25;4975504;28;20085;-85
2022/11/29 05:52:33;;;;;;;5.20;3.70;;;;;;;5.05;100.00;101614.88;4974966;28;20027;-85
2022/11/29 05:55:04;;;;;;;;;;;;;;;5.05;100.00;101604.56;4975417;28;20054;-84
2022/11/29 05:57:56;;;;;;;6.28;3.97;;;;;;;5.06;100.00;101608.00;4974517;28;19918;-84
2022/11/29 06:00:22;;;;;;;6.75;4.15;;;;;;;5.07;100.00;101608.03;4974983;28;20387;-84
2022/11/29 06:02:57;;;;;;;5.28;3.72;;;;;;;5.09;100.00;101615.78;4975231;28;20026;-85
2022/11/29 06:05:41;;;;;;;6.45;3.72;;;;;;;5.10;100.00;101618.38;4974502;28;20436;-84
2022/11/29 06:08:21;;;;;;;5.20;3.67;;;;;;;5.13;100.00;101620.13;4975285;28;20014;-85
2022/11/29 06:11:18;;;;;;;5.70;3.65;;;;;;;5.14;100.00;101623.59;4975207;28;20027;-83
2022/11/29 06:14:06;;;;;;;5.88;3.60;;;;;;;5.15;100.00;101627.91;4975879;28;20427;-83
2022/11/29 06:16:55;;;;;;;6.32;3.90;;;;;;;5.15;100.00;101626.19;4975195;28;20025;-84
2022/11/29 06:19:33;;;;;;;6.15;3.78;;;;;;;5.16;100.00;101630.50;4973526;28;20023;-85
2022/11/29 06:22:13;;;;;;;7.07;4.13;;;;;;;5.14;100.00;101626.16;4974920;28;20037;-85
2022/11/29 06:25:15;;;;;;;7.10;4.20;;;;;;;5.15;100.00;101631.34;4975205;28;20490;-85
2022/11/29 06:27:52;;;;;;;5.75;3.60;;;;;;;5.17;100.00;101646.81;4974973;28;20039;-87
2022/11/29 06:30:21;;;;;;;6.60;3.80;;;;;;;5.19;100.00;101647.69;4975217;28;20023;-86
2022/11/29 06:33:16;;;;;;;5.35;3.40;;;;;;;5.21;100.00;101656.31;4974196;28;20368;-85
2022/11/29 06:35:45;;;;;;;7.93;3.83;;;;;;;5.21;100.00;101666.63;4974241;28;20034;-85
2022/11/29 06:38:24;;;;;;;6.30;3.67;;;;;;;5.20;100.00;101665.75;4974511;28;20054;-83
2022/11/29 06:40:50;;;;;;;6.15;3.67;;;;;;;5.21;100.00;101670.06;4974003;28;20603;-84
2022/11/29 06:43:16;;;;;;;5.57;3.53;;;;;;;5.23;100.00;101664.94;4973665;28;20126;-83
2022/11/29 06:45:48;;;;;;;6.63;3.80;;;;;;;5.22;100.00;101673.50;4975131;28;20034;-89
2022/11/29 06:48:20;;;;;;;8.70;3.85;;;;;;;5.24;100.00;101684.69;4975586;28;20050;-89
2022/11/29 06:51:14;;;;;;;5.35;3.63;;;;;;;5.24;100.00;101684.69;4975632;28;20031;-89
2022/11/29 06:53:58;;;;;;;7.10;3.60;;;;;;;5.24;100.00;101677.84;4974439;28;20030;-90
2022/11/29 06:56:39;;;;;;;5.65;3.50;;;;;;;5.25;100.00;101682.16;4974976;28;20054;-90
2022/11/29 06:59:22;;;;;;;8.23;4.18;;;;;;;5.26;100.00;101685.59;4974658;28;20033;-86
2022/11/29 07:01:58;;;;;;;7.35;4.05;;;;;;;5.27;100.00;101687.34;4974426;28;20027;-87
2022/11/29 07:04:26;;;;;;;7.07;3.60;;;;;;;5.27;100.00;101692.50;4974461;28;20117;-86
2022/11/29 07:06:52;;;;;;;7.13;3.85;;;;;;;5.28;100.00;101699.38;4974885;28;20038;-86
2022/11/29 07:09:21;;;;;;;7.57;3.60;;;;;;;5.28;100.00;101703.66;4973954;28;20460;-85
2022/11/29 07:11:47;;;;;;;6.80;4.15;;;;;;;5.28;100.00;101701.06;4974573;28;20023;-85
2022/11/29 07:14:13;;;;;;;5.70;3.47;;;;;;;5.26;100.00;101707.06;4974146;28;20070;-84
2022/11/29 07:16:48;;;;;;;5.88;3.47;;;;;;;5.27;100.00;101702.78;4973279;28;20547;-84
2022/11/29 07:19:35;;;;;;;6.78;3.80;;;;;;;5.27;100.00;101713.09;4973961;28;20034;-84
2022/11/29 07:22:34;;;;;;;7.05;3.65;;;;;;;5.30;100.00;101712.28;4974091;28;20054;-85
2022/11/29 07:25:14;;;;;;;5.35;3.50;;;;;;;5.29;100.00;101714.00;4974216;28;20507;-85
2022/11/29 07:28:32;;;;;;;6.22;3.45;;;;;;;5.31;100.00;101721.72;4974325;28;20027;-85
2022/11/29 07:31:27;;;;;;;6.13;3.50;;;;;;;5.33;100.00;101725.22;4921104;28;20043;-85
2022/11/29 07:34:04;;;;;;;6.63;3.70;;;;;;;5.34;100.00;101729.53;4974710;28;20034;-86
2022/11/29 07:37:07;;;;;;;5.60;3.20;;;;;;;5.34;100.00;101729.53;4974237;28;20058;-85
2022/11/29 07:39:44;;;;;;;5.68;3.58;;;;;;;5.35;100.00;101737.28;4900677;29;20051;-85
2022/11/29 07:42:30;;;;;;;6.47;3.50;;;;;;;5.37;100.00;101732.16;4954290;29;20062;-85
2022/11/29 07:45:16;;;;;;;7.03;3.60;;;;;;;5.38;100.00;101737.34;4954256;29;20019;-86
2022/11/29 07:47:41;;;;;;;6.77;3.50;;;;;;;5.37;100.00;101743.31;4953573;29;20291;-87
2022/11/29 07:50:07;;;;;;;5.07;3.20;;;;;;;5.39;100.00;101744.22;4954050;29;20071;-83
2022/11/29 07:52:32;;;;;;;7.43;3.97;;;;;;;5.40;100.00;101750.22;4954587;29;20530;-84
2022/11/29 07:54:58;;;;;;;7.47;3.90;;;;;;;5.41;100.00;101754.56;4954226;29;20043;-83
2022/11/29 07:57:23;;;;;;;8.25;4.00;;;;;;;5.40;100.00;101745.94;4953507;29;20028;-83
2022/11/29 07:59:48;;;;;;;7.10;3.60;;;;;;;5.42;100.00;101751.13;4954357;29;20043;-84
2022/11/29 08:02:13;;;;;;;6.82;3.50;;;;;;;5.45;100.00;101751.22;4953716;29;20609;-83
2022/11/29 08:04:42;;;;;;;6.30;3.60;;;;;;;5.48;100.00;101752.97;4954233;28;20038;-83
2022/11/29 08:07:08;;;;;;;6.65;3.45;;;;;;;5.48;100.00;101745.25;4968211;28;20074;-83
2022/11/29 08:09:33;;;;;;;6.82;3.90;;;;;;;5.52;100.00;101744.44;4977520;28;20427;-83
2022/11/29 08:11:59;;;;;;;6.85;3.67;;;;;;;5.52;100.00;101747.03;4976244;28;20026;-83
2022/11/29 08:14:24;;;;;;;8.50;3.97;;;;;;;5.55;100.00;101744.53;4976755;28;20031;-83
2022/11/29 08:16:49;;;;;;;7.05;3.67;;;;;;;5.56;100.00;101751.41;4977044;28;20110;-83
2022/11/29 08:19:14;;;;;;;7.28;3.88;;;;;;;5.58;100.00;101757.47;4975737;28;20035;-83
2022/11/29 08:21:42;;;;;;;6.30;3.30;;;;;;;5.58;100.00;101752.31;4976795;28;20487;-83
2022/11/29 08:24:08;;;;;;;7.45;3.88;;;;;;;5.60;100.00;101760.94;4976661;28;20037;-84
2022/11/29 08:26:33;;;;;;;7.05;3.80;;;;;;;5.59;100.00;101754.06;4975946;28;20031;-83
2022/11/29 08:28:58;;;;;;;6.95;3.85;;;;;;;5.61;100.00;101767.84;4976744;28;20026;-83
2022/11/29 08:31:23;;;;;;;9.00;4.05;;;;;;;5.64;100.00;101762.72;4976643;28;20441;-83
2022/11/29 08:33:49;;;;;;;7.55;4.07;;;;;;;5.67;100.00;101760.22;4975871;28;20030;-83
2022/11/29 08:36:17;;;;;;;6.80;3.95;;;;;;;5.68;100.00;101772.25;4975998;28;20023;-83
2022/11/29 08:38:43;;;;;;;7.47;3.72;;;;;;;5.67;100.00;101767.94;4977025;28;20046;-83
2022/11/29 08:41:12;;;;;;;6.60;3.60;;;;;;;5.71;100.00;101766.28;4975844;28;20026;-83
2022/11/29 08:43:38;;;;;;;7.75;3.60;;;;;;;5.72;100.00;101771.50;4976667;28;20050;-83
2022/11/29 08:46:03;;;;;;;4.85;2.95;;;;;;;5.73;100.00;101772.34;4975535;28;20411;-83
2022/11/29 08:48:28;;;;;;;6.95;3.65;;;;;;;5.76;100.00;101766.38;4976021;28;20035;-83
2022/11/29 08:50:55;;;;;;;7.13;3.70;;;;;;;5.77;100.00;101775.84;4975238;28;20018;-83
2022/11/29 08:56:17;;;;;;;8.48;3.55;;;;;;;5.83;100.00;101781.16;4976409;28;20078;-83
2022/11/29 08:58:43;;;;;;;6.45;3.20;;;;;;;5.85;100.00;101782.03;4976477;28;20023;-84
2022/11/29 09:01:12;;;;;;;6.50;3.30;;;;;;;5.88;100.00;101793.28;4975152;28;20065;-84
2022/11/29 09:06:22;;;;;;;6.70;3.20;;;;;;;5.95;100.00;101793.38;4975835;28;20595;-84
2022/11/29 09:08:47;;;;;;;5.68;2.92;;;;;;;5.97;100.00;101784.81;4975400;28;20022;-84
2022/11/29 09:11:16;;;;;;;5.65;2.88;;;;;;;5.99;100.00;101798.66;4976035;28;20038;-83
2022/11/29 09:13:51;;;;;;;6.75;3.00;;;;;;;6.01;100.00;101796.97;4976165;28;20022;-84
2022/11/29 09:16:21;;;;;;;5.93;3.15;;;;;;;6.04;100.00;101796.16;4975344;28;20383;-83
2022/11/29 09:18:49;;;;;;;4.57;3.00;;;;;;;6.09;100.00;101803.97;4976124;28;20026;-83
2022/11/29 09:21:16;;;;;;;5.25;2.90;;;;;;;6.11;100.00;101804.88;4975433;28;20436;-83
2022/11/29 09:23:47;;;;;;;7.03;3.30;;;;;;;6.11;100.00;101802.28;4968187;28;20566;-84
2022/11/29 09:26:28;;;;;;;7.05;3.38;;;;;;;6.15;100.00;101809.25;4975707;28;20285;-84
2022/11/29 09:28:53;;;;;;;8.18;3.38;;;;;;;6.18;100.00;101815.34;4975199;28;20037;-83
2022/11/29 09:31:20;;;;;;;6.57;3.50;;;;;;;6.20;100.00;101812.78;4975418;28;20109;-83
2022/11/29 09:33:46;;;;;;;7.57;3.47;;;;;;;6.22;100.00;101815.41;4975760;28;20058;-83
2022/11/29 09:36:12;;;;;;;7.53;3.55;;;;;;;6.24;100.00;101811.16;4974447;28;20031;-83
2022/11/29 09:38:38;;;;;;;7.00;3.40;;;;;;;6.29;100.00;101814.66;4975573;28;20019;-83
2022/11/29 09:41:33;;;;;;;7.72;3.53;;;;;;;6.31;100.00;101821.56;4975530;28;20033;-83
2022/11/29 09:44:13;;;;;;;10.00;3.92;;;;;;;6.36;100.00;101831.09;4974634;28;20113;-83
2022/11/29 09:47:27;;;;;;;9.63;4.20;;;;;;;6.38;100.00;101839.75;4975434;28;20046;-83
2022/11/29 09:50:10;;;;;;;10.57;4.32;;;;;;;6.39;100.00;101838.91;4914856;28;20066;-82
2022/11/29 09:52:49;;;;;;;9.07;3.95;;;;;;;6.41;100.00;101845.81;4975318;28;20034;-84
2022/11/29 09:55:47;;;;;;;9.90;4.03;;;;;;;6.47;100.00;101845.06;4975142;28;20483;-84
2022/11/29 09:58:21;;;;;;;9.23;3.95;;;;;;;6.47;100.00;101843.34;4955057;29;20066;-83
2022/11/29 10:00:55;;;;;;;15.38;5.70;;;;;;;6.48;100.00;101846.81;4955993;29;20030;-83
2022/11/29 10:03:32;;;;;;;14.50;5.93;;;;;;;6.47;100.00;101845.91;4965664;28;20106;-83
2022/11/29 10:06:04;;;;;;;14.52;5.38;;;;;;;6.48;100.00;101849.38;4974867;28;20424;-83
2022/11/29 10:08:40;;;;;;;11.10;4.70;;;;;;;6.50;100.00;101847.72;4974017;28;20027;-83
2022/11/29 10:11:26;;;;;;;10.48;4.32;;;;;;;6.52;100.00;101847.72;4974072;28;20023;-83
2022/11/29 10:13:58;;;;;;;16.17;5.85;;;;;;;6.48;100.00;101847.66;4975271;28;20106;-83
2022/11/29 10:16:37;;;;;;;14.25;5.85;;;;;;;6.48;100.00;101844.22;4974379;28;20117;-83
2022/11/29 10:19:24;;;;;;;14.77;5.45;;;;;;;6.48;100.00;101852.81;4974208;28;20150;-83
2022/11/29 10:22:04;;;;;;;14.77;5.32;;;;;;;6.48;100.00;101850.25;4974865;28;20026;-83
2022/11/29 10:24:31;;;;;;;14.32;4.97;;;;;;;6.51;100.00;101843.41;4972917;28;20070;-83
2022/11/29 10:26:57;;;;;;;10.85;4.30;;;;;;;6.54;100.00;101846.91;4974505;28;20476;-83
2022/11/29 10:29:22;;;;;;;8.53;3.80;;;;;;;6.57;100.00;101839.22;4973632;28;20045;-83
2022/11/29 10:31:48;;;;;;;12.95;4.78;;;;;;;6.58;100.00;101837.53;4973785;28;20041;-84
2022/11/29 10:34:23;;;;;;;11.02;4.03;;;;;;;6.60;100.00;101830.66;4974327;28;20019;-82
2022/11/29 10:36:58;;;;;;;10.23;3.95;;;;;;;6.62;100.00;101837.59;4974972;28;20073;-83
2022/11/29 10:39:36;;;;;;;8.88;3.78;;;;;;;6.68;100.00;101835.97;4973872;28;20530;-84
2022/11/29 10:42:05;;;;;;;7.95;3.30;;;;;;;6.69;100.00;101835.13;4974684;28;20497;-84
2022/11/29 10:44:32;;;;;;;6.57;2.80;;;;;;;6.71;100.00;101841.19;4974221;28;20039;-83
2022/11/29 10:47:01;;;;;;;5.70;2.80;;;;;;;6.74;100.00;101843.81;4973416;28;20081;-83
2022/11/29 10:49:31;;;;;;;6.65;3.15;;;;;;;6.76;100.00;101847.25;4973066;28;20105;-84
2022/11/29 10:51:56;;;;;;;5.90;2.80;;;;;;;6.76;100.00;101849.84;4973708;28;20030;-84
2022/11/29 10:54:24;;;;;;;7.27;3.00;;;;;;;6.79;100.00;101853.38;4973070;28;20046;-83
2022/11/29 10:56:50;;;;;;;9.15;3.63;;;;;;;6.79;100.00;101853.38;4974083;28;20034;-84
2022/11/29 10:59:25;;;;;;;7.23;2.57;;;;;;;6.81;100.00;101853.38;4973971;28;20035;-83
2022/11/29 11:01:50;;;;;;;6.82;2.60;;;;;;;6.80;100.00;101855.13;4973559;28;20046;-83
2022/11/29 11:04:30;;;;;;;4.70;2.55;;;;;;;6.80;100.00;101851.66;4974268;28;20057;-83
2022/11/29 11:07:00;;;;;;;4.78;2.65;;;;;;;6.79;100.00;101860.22;4973691;28;20018;-83
2022/11/29 11:09:41;;;;;;;7.53;3.20;;;;;;;6.79;100.00;101855.06;4973753;28;20023;-83
2022/11/29 11:12:12;;;;;;;5.45;2.72;;;;;;;6.78;100.00;101856.78;4973858;28;20384;-83
2022/11/29 11:14:38;;;;;;;5.53;2.63;;;;;;;6.81;100.00;101850.81;4973526;28;20038;-83
2022/11/29 11:17:36;;;;;;;5.03;2.70;;;;;;;6.82;100.00;101854.25;4973719;28;20101;-83
2022/11/29 11:20:22;;;;;;;4.72;2.40;;;;;;;6.83;100.00;101846.53;4931216;28;20039;-83
2022/11/29 11:22:57;;;;;;;4.80;2.45;;;;;;;6.86;100.00;101849.19;4972635;28;20057;-83
2022/11/29 11:25:27;;;;;;;3.40;2.20;;;;;;;6.90;100.00;101852.69;4973747;28;20488;-84
2022/11/29 11:27:53;;;;;;;5.57;2.70;;;;;;;6.93;100.00;101852.69;4973510;28;20037;-83
2022/11/29 11:30:22;;;;;;;6.75;2.80;;;;;;;6.95;100.00;101851.91;4973457;28;20038;-83
2022/11/29 11:33:07;;;;;;;5.30;2.72;;;;;;;6.95;100.00;101849.31;4973772;28;20035;-83
2022/11/29 11:35:32;;;;;;;5.07;2.60;;;;;;;6.94;100.00;101859.59;4973236;28;20117;-83
2022/11/29 11:37:57;;;;;;;5.97;2.97;;;;;;;6.91;100.00;101860.44;4973818;28;20058;-83
2022/11/29 11:40:29;;;;;;;5.47;2.80;;;;;;;6.88;100.00;101860.38;4975090;28;20038;-83
2022/11/29 11:43:00;;;;;;;7.20;3.22;;;;;;;6.87;100.00;101862.94;4976846;28;20023;-83
2022/11/29 11:45:32;;;;;;;12.23;4.35;;;;;;;6.83;100.00;101867.19;4977386;28;20041;-83
2022/11/29 11:48:12;;;;;;;8.75;3.95;;;;;;;6.84;100.00;101871.50;4977758;28;20019;-83
2022/11/29 11:51:04;;;;;;;9.60;3.92;;;;;;;6.86;100.00;101875.00;4976307;28;20059;-83
2022/11/29 11:53:35;;;;;;;10.10;4.07;;;;;;;6.87;100.00;101873.25;4973561;28;20570;-84
2022/11/29 11:56:11;;;;;;;11.00;4.40;;;;;;;6.88;100.00;101873.28;4976784;28;20391;-82
2022/11/29 11:58:44;;;;;;;19.83;7.97;;;;;;;6.85;100.00;101874.94;4978139;28;20364;-83
2022/11/29 12:01:26;;;;;;;18.25;7.63;;;;;;;6.83;100.00;101877.50;4977313;28;20096;-82
2022/11/29 12:04:29;;;;;;;16.67;6.57;;;;;;;6.84;100.00;101874.09;4976795;28;20027;-84
2022/11/29 12:06:58;;;;;;;13.93;5.47;;;;;;;6.87;100.00;101883.59;4977778;28;20074;-85
2022/11/29 12:09:53;;;;;;;16.50;6.45;;;;;;;6.91;100.00;101887.97;4976604;28;20093;-82
2022/11/29 12:12:39;;;;;;;14.93;5.88;;;;;;;6.91;100.00;101888.81;4977020;28;20022;-82